الصفحة الرئيسية
METAR-TAF:

METAR-TAF

مطار :

باليمبانج, إندونيسيا

دائرة عرض: 02-54S, خط طول: 104-42E, ارتفاع: 10 متر

مراقبة الطقس الحالي

تاريخ ووقت الإصدار 16 دقيقة قبل الساعة 22:30UTC
ريح 3 عقدة من الجنوب/الجنوب الشرقي
درجة الحرارة 24°درجة مئوية
الرطوبة 94%
ضغط 1010 hPa
الرؤية 10 كم أو أكثر
غيوم قليلة على ارتفاع 1000 قدم

METAR: WIPP 252230Z 16003KT 9999 FEW010 24/23 Q1010 NOSIG

زمن: 05:46 (22:46 UTC)

توقعات

تاريخ ووقت الإصدار 5ساعات و 46 دقيقة قبل الساعة 17:00UTC
التوقعات صالحة من25 الساعة 18 UTC إلى 26 الساعة 18 UTC
ريح 8 عقدة من الجنوب/الجنوب الشرقي
الرؤية 10 كم أو أكثر
غيوم متفرقة على ارتفاع 1000 قدم
مؤقت
من 25 الساعة 22 UTC إلى 26 الساعة 01 UTC
الرؤية: 1500 متر
غشاء

TAF: WIPP 251700Z 2518/2618 15008KT 9999 SCT010 TEMPO 2522/2601 1500 BR

أرصاد الطقس والتوقعات من أكثر من 4000 مطار (تقارير الطقس للمطار METAR والتنبؤ بالطقس بالمطارTAF).

المحطات المتاحة هي النقط الصفراء والحمراء على الخريطة.

حرك المؤشر فوق النقطة لمعرفة اسم المحطة.

ثم انقر لمعرفة أرصاد وتوقعات الطقس.

لتغيير الخارطة: اضغط على الأزرار الخضراء مع رمز الصليب الأسود للتكبير. على الزر الأخضر مع شرطة للتصغير، أو على الأسهم الخضراء للخرائط المجاورة.


METAR-TAF: